Terminal Aerodrome Forecast
Issued by NWS

Home | Current Version | Previous Version | Text Only | Print | Product List | Glossary On
Versions: 1 2 3 4 5 6 7 8 9 10 11 12 13 14 15 16 17
000
FTUS45 KVEF 312300
TAFBIH
TAF
KBIH 312320Z 0100/0124 22007KT P6SM VCSH SCT120 BKN150
     FM010300 34006KT P6SM SCT150
     FM011900 16008KT P6SM SCT120=

USA.gov is the U.S. government's official web portal to all federal, state and local government web resources and services.